Time;durP1;ratioP1;P1;durP2;ratioP2;P2;SDS_P1;SDS_P2;PMS_P1;PMS_P2;Temp;Humidity;BMP_temperature;BMP_pressure;BME280_temperature;BME280_humidity;BME280_pressure;Samples;Min_cycle;Max_cycle;Signal;HPM_P1;HPM_P2
2021/03/20 00:00:54;;;;;;;54.60;26.10;;;;;;;5.07;67.22;100105.06;5053566;28;20025;-66
2021/03/20 00:03:20;;;;;;;53.77;26.67;;;;;;;5.04;67.02;100115.78;5050820;28;20025;-66
2021/03/20 00:05:46;;;;;;;50.97;25.55;;;;;;;5.12;67.39;100116.03;5054272;28;20033;-66
2021/03/20 00:08:16;;;;;;;51.20;27.20;;;;;;;5.02;68.00;100116.88;5052576;28;20223;-72
2021/03/20 00:10:42;;;;;;;52.42;28.08;;;;;;;4.96;67.90;100119.97;5052030;28;20029;-69
2021/03/20 00:13:08;;;;;;;92.43;42.40;;;;;;;4.98;67.60;100121.50;5053431;28;20037;-72
2021/03/20 00:15:33;;;;;;;69.97;33.97;;;;;;;4.80;67.87;100115.03;5051048;28;20048;-72
2021/03/20 00:17:59;;;;;;;55.40;28.43;;;;;;;4.82;67.85;100100.84;5052035;28;20117;-66
2021/03/20 00:20:28;;;;;;;53.45;27.60;;;;;;;5.09;66.52;100102.31;5050811;28;20029;-72
2021/03/20 00:22:54;;;;;;;51.03;26.27;;;;;;;5.23;65.76;100101.28;5050853;28;20088;-66
2021/03/20 00:25:20;;;;;;;49.30;25.33;;;;;;;5.04;64.35;100100.03;5050591;28;20035;-73
2021/03/20 00:27:46;;;;;;;53.00;27.00;;;;;;;4.90;65.04;100108.16;5055083;28;20033;-67
2021/03/20 00:30:13;;;;;;;54.47;28.00;;;;;;;4.75;65.73;100114.56;5049517;28;20068;-72
2021/03/20 00:32:39;;;;;;;57.20;28.43;;;;;;;4.63;65.62;100113.69;5052663;28;20209;-72
2021/03/20 00:35:07;;;;;;;55.13;24.93;;;;;;;4.64;65.28;100114.53;5050912;28;20040;-72
2021/03/20 00:37:33;;;;;;;54.63;23.58;;;;;;;4.56;65.12;100098.53;5051235;28;20033;-70
2021/03/20 00:39:59;;;;;;;55.10;24.13;;;;;;;4.69;64.56;100109.78;5051211;28;20311;-72
2021/03/20 00:42:24;;;;;;;60.67;25.40;;;;;;;4.55;64.99;100108.19;5043637;28;20037;-68
2021/03/20 00:44:50;;;;;;;55.43;25.80;;;;;;;4.42;66.01;100107.44;5045648;28;20057;-72
2021/03/20 00:47:16;;;;;;;55.80;26.03;;;;;;;4.42;66.39;100110.88;5044873;28;20037;-66
2021/03/20 00:49:41;;;;;;;59.97;26.70;;;;;;;4.59;65.54;100114.03;5052899;28;20072;-66
2021/03/20 00:52:07;;;;;;;57.67;27.13;;;;;;;4.72;65.63;100113.00;5052244;28;20029;-71
2021/03/20 00:54:33;;;;;;;57.83;27.43;;;;;;;4.71;65.83;100113.94;5084288;28;20021;-72
2021/03/20 00:56:58;;;;;;;64.45;27.77;;;;;;;4.82;65.89;100115.75;5045932;28;20041;-68
2021/03/20 00:59:25;;;;;;;64.23;29.03;;;;;;;4.77;66.90;100107.41;5043804;28;20030;-74
2021/03/20 01:01:50;;;;;;;71.67;31.90;;;;;;;4.85;66.82;100097.16;5046956;28;20347;-68
2021/03/20 01:04:16;;;;;;;75.30;32.17;;;;;;;4.93;66.57;100101.81;5041845;28;20025;-71
2021/03/20 01:06:41;;;;;;;70.18;32.42;;;;;;;4.98;66.82;100103.16;5044551;28;20159;-71
2021/03/20 01:09:07;;;;;;;76.73;33.30;;;;;;;5.18;66.10;100098.16;5043352;28;20286;-66
2021/03/20 01:11:33;;;;;;;75.47;31.93;;;;;;;5.13;66.39;100095.88;5047182;28;20021;-74
2021/03/20 01:13:59;;;;;;;66.10;30.13;;;;;;;5.03;66.86;100101.00;5042836;28;20033;-67
2021/03/20 01:16:26;;;;;;;70.15;29.98;;;;;;;4.74;68.27;100105.84;5047218;28;20016;-71
2021/03/20 01:18:52;;;;;;;74.33;34.53;;;;;;;4.85;67.78;100107.66;5049584;28;20032;-71
2021/03/20 01:21:19;;;;;;;62.10;29.47;;;;;;;4.92;67.71;100108.88;5048994;28;20029;-65
2021/03/20 01:23:44;;;;;;;55.58;27.77;;;;;;;4.90;67.72;100094.19;5049038;28;20025;-72
2021/03/20 01:26:10;;;;;;;52.90;26.07;;;;;;;5.07;67.15;100101.59;5054031;28;20122;-66
2021/03/20 01:28:40;;;;;;;52.95;26.27;;;;;;;4.92;67.51;100111.50;5052962;28;20077;-66
2021/03/20 01:31:08;;;;;;;54.40;27.35;;;;;;;5.12;67.10;100112.59;5060943;28;20112;-71
2021/03/20 01:33:33;;;;;;;51.92;25.02;;;;;;;5.15;66.83;100125.47;5056207;28;20033;-65
2021/03/20 01:35:59;;;;;;;57.55;27.85;;;;;;;5.00;67.88;100124.84;5044558;28;20013;-65
2021/03/20 01:38:26;;;;;;;56.25;27.10;;;;;;;5.04;68.09;100123.66;5051847;28;20041;-65
2021/03/20 01:40:56;;;;;;;56.90;27.55;;;;;;;5.00;67.89;100131.91;5044353;28;20223;-66
2021/03/20 01:43:23;;;;;;;54.50;26.55;;;;;;;4.94;67.79;100135.00;5044725;28;20238;-65
2021/03/20 01:45:49;;;;;;;58.60;28.23;;;;;;;4.75;68.03;100127.69;5045537;28;20059;-66
2021/03/20 01:48:34;;;;;;;62.50;29.60;;;;;;;4.76;68.86;100121.47;5041687;28;20270;-72
2021/03/20 01:51:02;;;;;;;65.20;30.00;;;;;;;4.91;68.53;100127.34;5041911;28;20197;-73
2021/03/20 01:53:38;;;;;;;67.97;31.38;;;;;;;5.08;67.23;100119.03;5045248;28;20279;-73
2021/03/20 01:56:08;;;;;;;82.13;35.88;;;;;;;5.07;67.37;100120.81;5041364;28;20162;-73
2021/03/20 01:58:37;;;;;;;84.23;37.93;;;;;;;5.07;67.31;100123.44;5043206;28;20021;-68
2021/03/20 02:01:08;;;;;;;80.90;35.80;;;;;;;5.02;67.94;100128.19;5044155;28;20033;-73
2021/03/20 02:03:35;;;;;;;76.73;34.03;;;;;;;5.06;67.67;100121.75;5042975;28;20053;-72
2021/03/20 02:06:01;;;;;;;75.65;33.72;;;;;;;4.97;68.67;100121.63;5046101;28;20286;-66
2021/03/20 02:08:28;;;;;;;75.85;32.80;;;;;;;5.15;67.15;100120.22;5044412;28;20045;-72
2021/03/20 02:11:02;;;;;;;74.50;33.43;;;;;;;5.17;66.59;100113.06;5044323;28;20027;-66
2021/03/20 02:13:44;;;;;;;68.97;33.30;;;;;;;4.87;67.25;100076.06;5042318;28;20049;-68
2021/03/20 02:16:18;;;;;;;73.20;33.65;;;;;;;5.22;67.01;100112.75;5054344;28;20037;-65
2021/03/20 02:18:51;;;;;;;;;;;;;;;5.38;66.78;100111.41;5047432;28;20255;-71
2021/03/20 02:21:19;;;;;;;73.37;32.13;;;;;;;5.37;66.31;100101.03;5049218;28;19912;-65
2021/03/20 02:24:00;;;;;;;71.85;32.08;;;;;;;5.38;66.00;100107.97;5045602;28;20033;-72
2021/03/20 02:26:41;;;;;;;76.65;33.63;;;;;;;5.39;65.87;100107.84;5052268;28;20033;-66
2021/03/20 02:29:41;;;;;;;72.45;33.15;;;;;;;5.43;65.93;100098.75;5064739;28;20036;-71
2021/03/20 02:32:31;;;;;;;74.80;31.88;;;;;;;5.54;65.48;100107.59;5047635;28;20086;-72
2021/03/20 02:35:21;;;;;;;64.53;31.40;;;;;;;5.57;65.59;100097.69;5047744;28;20033;-72
2021/03/20 02:38:08;;;;;;;69.85;32.55;;;;;;;5.59;65.61;100103.66;5079905;28;20037;-65
2021/03/20 02:40:49;;;;;;;75.97;33.58;;;;;;;5.62;64.99;100099.94;5064656;28;20024;-65
2021/03/20 02:43:23;;;;;;;75.18;34.00;;;;;;;5.55;64.93;100107.47;5052428;28;20027;-65
2021/03/20 02:45:52;;;;;;;;;;;;;;;5.45;65.22;100104.72;5056368;28;20257;-65
2021/03/20 02:48:27;;;;;;;88.85;38.17;;;;;;;5.37;65.66;100106.28;5046860;28;20000;-66
2021/03/20 02:51:05;;;;;;;89.20;37.72;;;;;;;5.40;64.71;100106.06;5050697;28;20048;-71
2021/03/20 02:53:36;;;;;;;84.80;37.47;;;;;;;5.29;65.09;100104.25;5045960;28;20040;-74
2021/03/20 02:56:06;;;;;;;87.10;38.92;;;;;;;5.29;65.50;100120.03;5055295;28;20035;-67
2021/03/20 02:58:45;;;;;;;90.07;37.65;;;;;;;5.19;66.07;100112.94;5047996;28;20043;-73
2021/03/20 03:01:14;;;;;;;93.53;41.53;;;;;;;5.31;65.11;100117.28;5045648;28;20036;-73
2021/03/20 03:03:42;;;;;;;99.55;42.85;;;;;;;5.17;65.48;100120.09;5045432;28;20385;-67
2021/03/20 03:06:20;;;;;;;98.97;40.60;;;;;;;5.25;65.31;100123.00;5054786;28;20303;-67
2021/03/20 03:08:48;;;;;;;91.63;38.47;;;;;;;5.23;65.85;100130.16;5054267;28;20086;-67
2021/03/20 03:11:32;;;;;;;88.25;39.08;;;;;;;5.08;66.37;100129.53;5049854;28;20048;-68
2021/03/20 03:14:05;;;;;;;90.10;38.30;;;;;;;5.17;65.57;100131.44;5050601;28;20063;-74
2021/03/20 03:16:40;;;;;;;93.07;39.03;;;;;;;5.17;65.89;100130.59;5047117;28;20410;-66
2021/03/20 03:19:14;;;;;;;90.40;35.97;;;;;;;5.20;65.25;100127.75;5044478;28;20018;-70
2021/03/20 03:21:45;;;;;;;80.57;35.50;;;;;;;5.25;65.51;100125.63;5048048;28;20037;-65
2021/03/20 03:24:17;;;;;;;91.25;36.97;;;;;;;5.35;64.60;100129.22;5049135;28;20040;-71
2021/03/20 03:26:51;;;;;;;87.15;35.65;;;;;;;5.16;64.44;100128.94;5048236;28;20127;-70
2021/03/20 03:29:23;;;;;;;75.10;33.92;;;;;;;5.00;65.45;100121.41;5045863;28;20061;-71
2021/03/20 03:32:10;;;;;;;88.13;36.37;;;;;;;5.03;65.25;100122.00;5044413;28;20034;-66
2021/03/20 03:34:57;;;;;;;81.32;33.70;;;;;;;4.78;65.94;100111.69;5045509;28;20025;-68
2021/03/20 03:37:35;;;;;;;72.63;31.60;;;;;;;4.11;68.63;100122.75;5043543;28;20045;-74
2021/03/20 03:40:13;;;;;;;71.83;30.77;;;;;;;3.91;69.24;100127.78;5049230;28;20028;-67
2021/03/20 03:42:39;;;;;;;77.37;31.73;;;;;;;3.67;70.18;100136.44;5045237;28;20029;-67
2021/03/20 03:45:11;;;;;;;79.67;33.30;;;;;;;3.57;70.73;100130.19;5048166;28;20107;-67
2021/03/20 03:47:37;;;;;;;74.67;31.77;;;;;;;3.72;70.49;100121.22;5045855;28;20044;-67
2021/03/20 03:50:09;;;;;;;71.10;30.57;;;;;;;3.85;70.22;100123.81;5045910;28;20096;-67
2021/03/20 03:52:35;;;;;;;72.63;30.10;;;;;;;3.80;70.58;100115.44;5048782;28;20040;-68
2021/03/20 03:55:01;;;;;;;71.60;31.87;;;;;;;3.91;69.97;100112.06;5063229;28;20112;-74
2021/03/20 03:57:41;;;;;;;70.00;29.47;;;;;;;3.91;69.97;100118.13;5060251;28;20040;-73
2021/03/20 04:00:08;;;;;;;70.10;28.30;;;;;;;3.88;69.69;100120.97;5045021;28;20092;-73
2021/03/20 04:02:46;;;;;;;69.10;28.10;;;;;;;3.84;69.90;100117.75;5058386;28;20041;-67
2021/03/20 04:05:22;;;;;;;74.60;29.17;;;;;;;3.84;70.13;100120.34;5049172;28;20128;-67
2021/03/20 04:08:14;;;;;;;70.50;29.33;;;;;;;3.89;69.93;100122.66;5044830;28;20044;-67
2021/03/20 04:10:45;;;;;;;65.80;28.27;;;;;;;3.98;69.89;100131.63;5048975;28;20072;-67
2021/03/20 04:13:20;;;;;;;64.10;28.47;;;;;;;4.23;69.06;100126.31;5042941;28;20097;-68
2021/03/20 04:16:05;;;;;;;64.60;29.13;;;;;;;4.21;69.23;100132.59;5049350;28;20040;-74
2021/03/20 04:18:58;;;;;;;59.77;27.37;;;;;;;4.25;69.06;100134.88;5054322;28;20266;-68
2021/03/20 04:21:48;;;;;;;54.00;25.87;;;;;;;4.19;69.25;100127.47;5047038;28;20071;-67
2021/03/20 04:24:17;;;;;;;57.70;25.67;;;;;;;4.24;69.25;100140.25;5044675;28;20033;-74
2021/03/20 04:27:05;;;;;;;59.60;27.80;;;;;;;3.97;70.61;100154.38;5043451;28;20041;-68
2021/03/20 04:29:48;;;;;;;63.93;28.97;;;;;;;3.81;71.16;100152.00;5046201;28;20066;-67
2021/03/20 04:32:25;;;;;;;66.13;27.97;;;;;;;3.74;71.63;100163.03;5045909;28;20056;-67
2021/03/20 04:35:12;;;;;;;60.83;26.97;;;;;;;3.78;72.00;100165.31;5046083;28;20640;-67
2021/03/20 04:37:41;;;;;;;57.43;26.77;;;;;;;3.82;71.42;100158.91;5052773;28;20212;-67
2021/03/20 04:40:23;;;;;;;55.30;27.43;;;;;;;3.49;72.50;100154.28;5050873;28;20025;-68
2021/03/20 04:42:50;;;;;;;61.93;27.90;;;;;;;3.46;73.39;100158.88;5042910;28;20064;-67
2021/03/20 04:45:28;;;;;;;60.57;27.67;;;;;;;3.43;73.95;100154.72;5045419;28;20092;-67
2021/03/20 04:47:56;;;;;;;57.97;25.80;;;;;;;3.22;74.58;100157.97;5045892;28;20040;-73
2021/03/20 04:50:26;;;;;;;57.70;25.87;;;;;;;3.05;75.06;100154.69;5045365;28;20044;-73
2021/03/20 04:52:53;;;;;;;54.97;26.20;;;;;;;2.85;75.65;100160.44;5046251;28;20038;-67
2021/03/20 04:55:19;;;;;;;52.73;25.43;;;;;;;2.88;76.16;100155.00;5053976;28;20036;-73
2021/03/20 04:58:12;;;;;;;56.87;27.03;;;;;;;2.53;77.95;100152.97;5061809;28;20041;-71
2021/03/20 05:00:45;;;;;;;54.17;25.77;;;;;;;2.66;76.57;100155.59;5040529;28;20033;-71
2021/03/20 05:03:20;;;;;;;58.33;25.42;;;;;;;2.43;78.26;100159.72;5043983;28;20327;-65
2021/03/20 05:06:13;;;;;;;52.83;25.43;;;;;;;2.81;78.12;100157.19;5041678;28;20227;-73
2021/03/20 05:08:47;;;;;;;70.37;30.37;;;;;;;3.07;76.29;100155.44;5046448;28;20235;-74
2021/03/20 05:11:12;;;;;;;108.47;44.13;;;;;;;3.35;76.03;100154.41;5057947;28;20309;-68
2021/03/20 05:13:41;;;;;;;106.73;44.33;;;;;;;3.75;74.28;100162.09;5058207;28;20399;-73
2021/03/20 05:16:29;;;;;;;78.07;34.90;;;;;;;3.87;73.15;100158.59;5061435;28;20029;-73
2021/03/20 05:18:55;;;;;;;54.47;27.40;;;;;;;3.77;73.43;100152.34;5045654;28;20068;-68
2021/03/20 05:21:30;;;;;;;59.07;29.53;;;;;;;3.96;73.31;100163.19;5042869;28;20059;-74
2021/03/20 05:23:56;;;;;;;61.37;29.20;;;;;;;4.18;72.05;100161.66;5047798;28;20052;-68
2021/03/20 05:26:23;;;;;;;61.70;30.13;;;;;;;4.17;71.56;100160.81;5062864;28;20093;-73
2021/03/20 05:28:49;;;;;;;79.97;38.83;;;;;;;4.16;72.07;100159.13;5059509;28;20055;-73
2021/03/20 05:31:14;;;;;;;69.43;33.50;;;;;;;4.25;71.79;100152.41;5062622;28;20036;-67
2021/03/20 05:33:42;;;;;;;76.07;35.63;;;;;;;4.50;71.05;100154.91;5057444;28;20216;-73
2021/03/20 05:36:08;;;;;;;68.63;33.83;;;;;;;4.74;70.30;100154.84;5043134;28;20037;-68
2021/03/20 05:38:35;;;;;;;46.50;24.13;;;;;;;4.73;70.04;100164.50;5040687;28;20033;-73
2021/03/20 05:41:12;;;;;;;41.63;22.10;;;;;;;4.80;69.13;100157.03;5060275;28;20063;-74
2021/03/20 05:43:44;;;;;;;43.20;21.80;;;;;;;4.61;70.20;100169.84;5061046;28;20036;-68
2021/03/20 05:46:50;;;;;;;49.00;24.63;;;;;;;4.43;71.51;100179.91;5044464;28;20040;-73
2021/03/20 05:49:34;;;;;;;54.73;25.33;;;;;;;4.58;71.08;100184.00;5044316;28;20033;-73
2021/03/20 05:52:23;;;;;;;49.00;25.67;;;;;;;4.63;71.29;100178.44;5042588;28;20033;-67
2021/03/20 05:55:14;;;;;;;54.70;27.00;;;;;;;4.64;71.44;100178.31;5044037;28;20037;-68
2021/03/20 05:57:50;;;;;;;61.97;29.27;;;;;;;4.43;72.80;100178.13;5043173;28;20052;-68
2021/03/20 06:00:35;;;;;;;54.33;27.00;;;;;;;4.58;72.54;100181.38;5045282;28;20053;-67
2021/03/20 06:03:19;;;;;;;50.97;26.60;;;;;;;4.79;71.07;100173.72;5043746;28;20323;-68
2021/03/20 06:05:47;;;;;;;54.38;27.30;;;;;;;4.83;71.04;100175.16;5042698;28;20307;-74
2021/03/20 06:08:22;;;;;;;47.33;23.00;;;;;;;4.78;71.38;100167.63;5044100;28;20036;-68
2021/03/20 06:11:31;;;;;;;46.33;24.10;;;;;;;4.87;70.61;100173.97;5045476;28;20048;-73
2021/03/20 06:14:15;;;;;;;49.60;24.87;;;;;;;5.03;70.40;100171.88;5042767;28;20040;-72
2021/03/20 06:17:28;;;;;;;46.65;24.20;;;;;;;5.34;68.77;100170.38;5044118;28;20055;-71
2021/03/20 06:20:20;;;;;;;49.60;23.98;;;;;;;5.41;68.61;100182.09;5043035;28;20103;-66
2021/03/20 06:23:23;;;;;;;52.50;25.08;;;;;;;5.38;69.26;100178.88;5044921;28;20101;-72
2021/03/20 06:26:19;;;;;;;56.60;27.17;;;;;;;5.25;70.58;100180.75;5052111;28;20116;-66
2021/03/20 06:29:02;;;;;;;56.80;29.88;;;;;;;5.37;69.96;100179.81;5042310;28;20038;-68
2021/03/20 06:31:32;;;;;;;65.23;31.33;;;;;;;5.38;70.25;100179.69;5041045;28;20035;-66
2021/03/20 06:34:27;;;;;;;63.13;30.77;;;;;;;5.54;69.75;100178.50;5045154;28;20040;-65
2021/03/20 06:36:53;;;;;;;62.67;31.42;;;;;;;5.52;70.19;100185.69;5040413;28;20049;-66
2021/03/20 06:39:27;;;;;;;68.32;33.15;;;;;;;5.33;71.23;100196.75;5046644;28;20029;-66
2021/03/20 06:42:02;;;;;;;;;;;;;;;5.55;71.21;100196.78;5045669;28;20040;-70
2021/03/20 06:44:41;;;;;;;69.13;32.90;;;;;;;5.69;70.71;100198.34;5041114;28;19924;-71
2021/03/20 06:47:17;;;;;;;76.90;35.13;;;;;;;5.90;70.12;100191.41;5043991;28;20045;-66
2021/03/20 06:49:57;;;;;;;77.65;35.80;;;;;;;5.69;70.46;100183.41;5044143;28;20371;-68
2021/03/20 06:52:23;;;;;;;78.90;34.22;;;;;;;5.63;71.76;100196.19;5041393;28;20033;-74
2021/03/20 06:54:55;;;;;;;83.13;38.83;;;;;;;5.53;72.17;100188.19;5045704;28;20096;-73
2021/03/20 06:57:21;;;;;;;74.20;34.80;;;;;;;5.55;72.38;100191.53;5040333;28;20026;-72
2021/03/20 06:59:46;;;;;;;89.80;39.80;;;;;;;5.53;72.28;100193.44;5045376;28;20083;-71
2021/03/20 07:02:19;;;;;;;94.57;40.35;;;;;;;5.69;72.63;100204.41;5043232;28;20220;-69
2021/03/20 07:05:23;;;;;;;84.35;37.28;;;;;;;5.93;71.75;100206.94;5047817;28;20063;-65
2021/03/20 07:08:15;;;;;;;92.47;37.70;;;;;;;6.06;71.80;100207.66;5043596;28;20044;-71
2021/03/20 07:10:47;;;;;;;84.45;36.90;;;;;;;5.90;72.34;100212.44;5058460;28;20474;-71
2021/03/20 07:13:24;;;;;;;92.30;39.83;;;;;;;6.09;71.72;100202.16;5064223;28;20040;-66
2021/03/20 07:16:09;;;;;;;93.72;38.92;;;;;;;6.02;72.47;100198.34;5049681;28;20303;-66
2021/03/20 07:18:41;;;;;;;82.28;37.22;;;;;;;5.80;72.45;100155.44;5044158;28;20284;-67
2021/03/20 07:21:38;;;;;;;84.32;35.65;;;;;;;5.97;72.62;100195.22;5048555;28;20044;-65
2021/03/20 07:24:15;;;;;;;94.22;40.30;;;;;;;5.98;73.21;100185.56;5043306;28;20049;-71
2021/03/20 07:26:53;;;;;;;95.13;39.00;;;;;;;5.88;74.43;100190.69;5045123;28;22418;-66
2021/03/20 07:29:36;;;;;;;84.70;37.42;;;;;;;6.05;72.76;100192.84;5044560;28;20046;-71
2021/03/20 07:32:01;;;;;;;82.63;38.70;;;;;;;6.01;73.86;100193.19;5048210;28;20021;-65
2021/03/20 07:34:31;;;;;;;83.82;38.33;;;;;;;6.12;73.03;100195.81;5043170;28;20088;-71
2021/03/20 07:37:24;;;;;;;86.80;38.15;;;;;;;6.03;72.78;100200.00;5047854;28;20039;-72
2021/03/20 07:39:54;;;;;;;84.78;38.28;;;;;;;6.20;72.51;100182.88;5043372;28;20138;-66
2021/03/20 07:42:38;;;;;;;86.97;39.90;;;;;;;6.24;72.74;100197.47;5046604;28;20056;-66
2021/03/20 07:45:06;;;;;;;86.18;37.13;;;;;;;6.45;71.59;100188.81;5044710;28;20025;-71
2021/03/20 07:47:40;;;;;;;85.28;38.55;;;;;;;6.42;71.99;100171.50;5048858;28;20056;-65
2021/03/20 07:50:22;;;;;;;77.43;36.70;;;;;;;6.57;72.75;100186.03;5042678;28;20032;-71
2021/03/20 07:53:00;;;;;;;80.32;39.03;;;;;;;6.84;70.07;100174.16;5044108;28;20072;-71
2021/03/20 07:55:26;;;;;;;90.50;40.40;;;;;;;6.82;70.84;100169.03;5045003;28;20039;-72
2021/03/20 07:57:57;;;;;;;84.53;40.60;;;;;;;7.33;70.18;100191.97;5047133;28;20288;-72
2021/03/20 08:00:35;;;;;;;75.65;37.20;;;;;;;7.62;67.27;100185.03;5044620;28;20100;-72
2021/03/20 08:03:13;;;;;;;82.90;39.30;;;;;;;7.72;67.43;100178.97;5045327;28;20042;-71
2021/03/20 08:05:39;;;;;;;86.03;38.72;;;;;;;7.74;67.27;100148.88;5042768;28;20037;-72
2021/03/20 08:08:25;;;;;;;87.85;39.75;;;;;;;8.22;65.77;100177.16;5047258;28;20104;-66
2021/03/20 08:10:54;;;;;;;78.55;37.65;;;;;;;8.52;63.82;100181.56;5044782;28;20044;-72
2021/03/20 08:13:38;;;;;;;71.93;32.58;;;;;;;8.49;64.18;100189.75;5046290;28;20025;-71
2021/03/20 08:16:05;;;;;;;74.68;33.63;;;;;;;8.24;64.57;100177.88;5043055;28;20075;-71
2021/03/20 08:18:40;;;;;;;73.55;34.90;;;;;;;7.74;65.93;100190.22;5048268;28;20033;-65
2021/03/20 08:21:14;;;;;;;77.22;35.88;;;;;;;7.53;67.79;100191.09;5044661;28;20028;-71
2021/03/20 08:24:09;;;;;;;73.55;35.55;;;;;;;7.65;66.48;100192.69;5046596;28;20028;-72
2021/03/20 08:26:56;;;;;;;78.13;36.03;;;;;;;7.23;68.74;100189.25;5043313;28;20056;-72
2021/03/20 08:29:26;;;;;;;72.22;35.75;;;;;;;7.55;68.44;100186.53;5044966;28;20366;-72
2021/03/20 08:32:06;;;;;;;67.38;32.72;;;;;;;7.58;69.83;100182.81;5041752;28;20037;-72
2021/03/20 08:34:59;;;;;;;73.95;32.90;;;;;;;7.16;69.00;100192.53;5044887;28;20326;-66
2021/03/20 08:37:31;;;;;;;72.68;33.97;;;;;;;7.07;71.04;100198.56;5044552;28;20041;-66
2021/03/20 08:40:14;;;;;;;71.68;33.65;;;;;;;7.31;69.74;100186.00;5043685;28;20025;-66
2021/03/20 08:43:01;;;;;;;67.87;31.30;;;;;;;7.44;68.74;100191.91;5045071;28;20708;-65
2021/03/20 08:45:54;;;;;;;64.18;31.73;;;;;;;7.77;67.49;100195.22;5043801;28;20821;-65
2021/03/20 08:48:44;;;;;;;67.82;32.40;;;;;;;7.81;67.00;100192.19;5046741;28;20327;-71
2021/03/20 08:51:22;;;;;;;71.53;33.78;;;;;;;7.81;67.62;100192.19;5044709;28;20024;-66
2021/03/20 08:53:51;;;;;;;66.75;32.40;;;;;;;8.04;66.50;100199.91;5044187;28;20033;-66
2021/03/20 08:56:52;;;;;;;63.92;32.97;;;;;;;8.50;65.52;100200.19;5042760;28;20025;-67
2021/03/20 08:59:24;;;;;;;67.55;32.35;;;;;;;8.59;64.95;100198.53;5044185;28;20044;-72
2021/03/20 09:01:57;;;;;;;69.28;34.28;;;;;;;8.66;64.10;100202.28;5043985;28;20029;-72
2021/03/20 09:04:33;;;;;;;69.70;32.40;;;;;;;9.00;62.96;100201.84;5045756;28;20056;-66
2021/03/20 09:07:05;;;;;;;66.28;31.23;;;;;;;8.77;62.71;100190.75;5041649;28;20079;-66
2021/03/20 09:10:00;;;;;;;64.40;30.65;;;;;;;8.70;63.50;100193.09;5047028;28;20045;-66
2021/03/20 09:12:38;;;;;;;71.63;31.23;;;;;;;8.61;63.99;100191.28;5044598;28;20056;-72
2021/03/20 09:15:08;;;;;;;69.47;31.20;;;;;;;8.75;64.04;100190.03;5053232;28;20033;-71
2021/03/20 09:17:38;;;;;;;69.55;33.53;;;;;;;8.57;64.49;100189.91;5052083;28;20032;-66
2021/03/20 09:20:28;;;;;;;79.80;34.58;;;;;;;8.68;64.78;100184.50;5050477;28;20036;-66
2021/03/20 09:22:55;;;;;;;69.72;32.88;;;;;;;8.73;63.99;100170.88;5053805;28;20326;-71
2021/03/20 09:25:33;;;;;;;77.53;33.58;;;;;;;9.04;63.75;100167.06;5056441;28;20325;-72
2021/03/20 09:28:05;;;;;;;78.28;35.63;;;;;;;8.62;64.19;100171.84;5061624;28;20295;-71
2021/03/20 09:30:43;;;;;;;72.50;32.72;;;;;;;8.56;65.49;100172.41;5063006;28;20162;-72
2021/03/20 09:33:34;;;;;;;69.28;32.28;;;;;;;8.26;66.13;100174.13;5060346;28;20021;-66
2021/03/20 09:36:08;;;;;;;68.47;31.67;;;;;;;8.20;66.58;100174.66;5058217;28;20056;-67
2021/03/20 09:38:34;;;;;;;70.00;30.33;;;;;;;7.72;67.70;100182.44;5047888;28;20043;-66
2021/03/20 09:41:08;;;;;;;69.32;31.25;;;;;;;7.66;67.72;100173.28;5042826;28;20081;-66
2021/03/20 09:44:09;;;;;;;66.60;29.80;;;;;;;7.77;67.25;100180.25;5044689;28;20238;-71
2021/03/20 09:46:44;;;;;;;72.63;31.75;;;;;;;8.11;66.84;100179.91;5042515;28;20033;-65
2021/03/20 09:49:10;;;;;;;67.38;31.23;;;;;;;7.64;69.14;100169.09;5045934;28;20037;-65
2021/03/20 09:51:48;;;;;;;67.05;32.83;;;;;;;7.76;70.65;100172.47;5043311;28;20036;-66
2021/03/20 09:54:22;;;;;;;70.88;29.58;;;;;;;7.55;69.13;100165.47;5043498;28;20031;-71
2021/03/20 09:57:12;;;;;;;66.28;29.45;;;;;;;7.43;71.56;100173.59;5043295;28;20056;-71
2021/03/20 09:59:37;;;;;;;66.30;31.15;;;;;;;7.61;70.06;100172.00;5041961;28;20028;-65
2021/03/20 10:02:09;;;;;;;64.60;30.30;;;;;;;7.62;69.61;100163.97;5045248;28;20260;-70
2021/03/20 10:04:58;;;;;;;70.43;30.60;;;;;;;7.66;69.20;100168.00;5040998;28;20033;-66
2021/03/20 10:07:24;;;;;;;66.43;28.98;;;;;;;7.62;69.22;100163.13;5045793;28;20029;-71
2021/03/20 10:09:55;;;;;;;67.43;30.25;;;;;;;7.59;70.76;100156.31;5039903;28;20099;-65
2021/03/20 10:12:44;;;;;;;63.33;28.13;;;;;;;7.49;70.13;100152.81;5045343;28;20354;-72
2021/03/20 10:15:12;;;;;;;64.10;28.42;;;;;;;7.63;70.37;100154.25;5045276;28;20048;-71
2021/03/20 10:18:09;;;;;;;65.30;28.90;;;;;;;7.75;70.36;100155.81;5077038;28;20049;-65
2021/03/20 10:20:37;;;;;;;61.92;27.05;;;;;;;7.85;69.71;100164.59;5043003;28;20032;-71
2021/03/20 10:23:11;;;;;;;58.97;26.95;;;;;;;7.67;69.77;100147.75;5042486;28;20049;-70
2021/03/20 10:25:44;;;;;;;58.83;25.40;;;;;;;7.49;69.36;100152.81;5053355;28;20033;-65
2021/03/20 10:28:10;;;;;;;49.97;23.80;;;;;;;7.52;69.75;100152.56;5060680;28;20040;-72
2021/03/20 10:30:37;;;;;;;51.83;24.80;;;;;;;7.45;69.88;100146.13;5047554;28;20028;-65
2021/03/20 10:33:03;;;;;;;54.80;26.60;;;;;;;7.79;69.48;100149.31;5041358;28;20396;-66
2021/03/20 10:35:31;;;;;;;54.08;26.55;;;;;;;7.97;68.78;100145.06;5045400;28;20024;-72
2021/03/20 10:38:12;;;;;;;54.35;24.48;;;;;;;8.03;68.65;100143.69;5059204;28;20100;-65
2021/03/20 10:40:38;;;;;;;51.65;24.30;;;;;;;7.90;68.03;100148.38;5064494;28;20303;-65
2021/03/20 10:43:04;;;;;;;53.83;24.98;;;;;;;8.04;67.34;100144.50;5051277;28;20048;-71
2021/03/20 10:45:35;;;;;;;48.92;24.77;;;;;;;8.12;67.95;100142.88;5045081;28;20036;-65
2021/03/20 10:48:11;;;;;;;47.10;23.27;;;;;;;8.01;66.95;100137.72;5047140;28;20350;-66
2021/03/20 10:50:41;;;;;;;43.47;22.52;;;;;;;8.00;67.02;100138.69;5049590;28;20021;-66
2021/03/20 10:53:21;;;;;;;45.45;22.73;;;;;;;8.27;68.77;100130.94;5061207;28;20041;-71
2021/03/20 10:55:54;;;;;;;45.83;22.52;;;;;;;8.31;68.29;100121.78;5062309;28;20064;-71
2021/03/20 10:58:37;;;;;;;47.80;24.13;;;;;;;8.35;66.54;100116.28;5059524;28;20086;-71
2021/03/20 11:01:03;;;;;;;52.10;25.30;;;;;;;8.67;66.44;100110.72;5058922;28;20120;-72
2021/03/20 11:03:44;;;;;;;49.20;23.98;;;;;;;8.48;66.56;100112.41;5064892;28;20041;-71
2021/03/20 11:06:13;;;;;;;46.75;23.67;;;;;;;8.78;65.71;100115.84;5061470;28;20021;-65
2021/03/20 11:08:40;;;;;;;48.33;25.52;;;;;;;8.78;66.30;100113.19;5057689;28;20033;-65
2021/03/20 11:11:08;;;;;;;44.00;23.90;;;;;;;9.06;64.66;100109.66;5060136;28;20072;-71
2021/03/20 11:13:42;;;;;;;48.97;23.65;;;;;;;9.07;64.19;100113.13;5060298;28;20341;-69
2021/03/20 11:16:14;;;;;;;47.70;24.20;;;;;;;9.29;64.99;100107.50;5062299;28;20331;-68
2021/03/20 11:18:48;;;;;;;48.72;24.05;;;;;;;8.84;65.17;100102.06;5063189;28;20036;-68
2021/03/20 11:21:43;;;;;;;43.35;23.40;;;;;;;8.80;65.61;100092.75;5061862;28;20056;-66
2021/03/20 11:24:24;;;;;;;45.13;23.23;;;;;;;9.05;64.62;100072.81;5052741;28;20041;-65
2021/03/20 11:26:51;;;;;;;43.90;22.73;;;;;;;8.98;64.64;100079.66;5054076;28;20049;-72
2021/03/20 11:29:21;;;;;;;44.47;24.45;;;;;;;9.04;65.51;100072.00;5062647;28;20208;-66
2021/03/20 11:31:52;;;;;;;48.08;25.95;;;;;;;9.14;65.96;100066.66;5058544;28;20048;-72
2021/03/20 11:34:25;;;;;;;46.15;24.00;;;;;;;8.99;66.33;100068.13;5056694;28;20037;-74
2021/03/20 11:36:52;;;;;;;46.22;24.02;;;;;;;8.85;65.45;100057.03;5061468;28;20044;-68
2021/03/20 11:39:20;;;;;;;43.28;23.00;;;;;;;8.79;65.25;100047.03;5064814;28;20020;-74
2021/03/20 11:41:53;;;;;;;43.53;23.33;;;;;;;8.85;66.43;100050.91;5062591;28;20051;-68
2021/03/20 11:44:24;;;;;;;45.65;23.60;;;;;;;8.90;65.19;100049.50;5063932;28;20033;-74
2021/03/20 11:46:55;;;;;;;41.67;23.00;;;;;;;8.93;67.41;100024.63;5059885;28;20040;-65
2021/03/20 11:49:31;;;;;;;50.30;24.40;;;;;;;8.73;66.65;100037.06;5058201;28;20083;-71
2021/03/20 11:51:57;;;;;;;44.78;21.83;;;;;;;8.84;66.00;100042.16;5059192;28;20040;-72